createdAt,value
2019-05-23T00:03:45.609Z,65.83
2019-05-23T00:09:08.564Z,65.94
2019-05-23T00:14:30.655Z,65.84
2019-05-23T00:19:33.564Z,65.81
2019-05-23T00:24:38.401Z,65.78
2019-05-23T00:29:43.687Z,65.85
2019-05-23T00:34:48.375Z,65.81
2019-05-23T00:39:52.628Z,65.91
2019-05-23T00:44:57.190Z,65.85
2019-05-23T00:50:01.576Z,65.99
2019-05-23T00:55:05.620Z,66.05
2019-05-23T01:00:12.198Z,66.12
2019-05-23T01:05:15.660Z,66.28
2019-05-23T01:10:18.805Z,66.43
2019-05-23T01:15:23.865Z,66.51
2019-05-23T01:20:35.709Z,66.68
2019-05-23T01:25:39.352Z,66.70
2019-05-23T01:30:45.475Z,66.77
2019-05-23T01:35:48.322Z,66.62
2019-05-23T01:40:51.015Z,66.53
2019-05-23T01:45:55.256Z,66.70
2019-05-23T01:50:58.000Z,66.78
2019-05-23T01:56:01.394Z,66.76
2019-05-23T02:01:04.186Z,66.81
2019-05-23T02:06:09.671Z,66.86
2019-05-23T02:11:14.255Z,67.00
2019-05-23T02:16:18.646Z,67.16
2019-05-23T02:21:21.730Z,67.40
2019-05-23T02:26:26.162Z,67.46
2019-05-23T02:31:29.254Z,67.87
2019-05-23T02:36:33.339Z,67.82
2019-05-23T02:41:55.210Z,68.08
2019-05-23T02:47:24.562Z,68.19
2019-05-23T02:52:38.653Z,68.53
2019-05-23T02:57:42.813Z,68.37
2019-05-23T03:02:51.006Z,68.54
2019-05-23T03:07:58.764Z,68.55
2019-05-23T03:13:04.708Z,68.26
2019-05-23T03:18:10.219Z,68.50
2019-05-23T03:23:14.851Z,68.55
2019-05-23T03:28:18.602Z,68.88
2019-05-23T03:33:22.952Z,68.74
2019-05-23T03:38:27.581Z,68.95
2019-05-23T03:43:31.351Z,69.13
2019-05-23T03:48:34.143Z,69.20
2019-05-23T03:53:38.224Z,69.24
2019-05-23T03:58:40.684Z,69.52
2019-05-23T04:03:46.845Z,69.51
2019-05-23T04:08:49.876Z,69.84
2019-05-23T04:13:52.794Z,70.10
2019-05-23T04:18:56.213Z,70.11
2019-05-23T04:23:59.269Z,70.30
2019-05-23T04:29:02.541Z,70.96
2019-05-23T04:34:05.433Z,70.76
2019-05-23T04:39:08.937Z,70.79
2019-05-23T04:44:12.719Z,70.84
2019-05-23T04:49:15.553Z,71.40
2019-05-23T04:54:18.275Z,71.40
2019-05-23T04:59:23.615Z,71.43
2019-05-23T05:04:26.605Z,71.13
2019-05-23T05:09:32.487Z,71.20
2019-05-23T05:14:36.403Z,71.01
2019-05-23T05:19:39.400Z,71.04
2019-05-23T05:24:42.499Z,70.92
2019-05-23T05:29:44.927Z,70.55
2019-05-23T05:34:48.259Z,70.75
2019-05-23T05:39:51.000Z,70.39
2019-05-23T05:44:54.106Z,70.13
2019-05-23T05:49:57.564Z,69.86
2019-05-23T05:55:01.149Z,69.82
2019-05-23T06:00:12.649Z,69.54
2019-05-23T06:05:20.968Z,69.20
2019-05-23T06:10:24.692Z,69.25
2019-05-23T06:15:27.665Z,69.17
2019-05-23T06:20:30.518Z,68.17
2019-05-23T06:25:33.907Z,68.16
2019-05-23T06:30:39.378Z,67.91
2019-05-23T06:35:42.977Z,68.04
2019-05-23T06:40:46.017Z,66.75
2019-05-23T06:45:49.400Z,66.69
2019-05-23T06:50:51.814Z,66.89
2019-05-23T06:55:54.064Z,66.40
2019-05-23T07:00:56.581Z,65.96
2019-05-23T07:05:59.550Z,65.15
2019-05-23T07:11:02.074Z,64.65
2019-05-23T07:16:04.840Z,64.98
2019-05-23T07:21:09.572Z,61.78
2019-05-23T07:26:12.939Z,58.64
2019-05-23T07:31:16.353Z,53.41
2019-05-23T07:36:20.364Z,48.77
2019-05-23T07:41:23.080Z,44.77
2019-05-23T07:46:27.008Z,42.28
2019-05-23T07:51:29.954Z,38.49
2019-05-23T07:56:36.386Z,36.81
2019-05-23T08:01:43.478Z,35.72
2019-05-23T08:06:49.038Z,35.84
2019-05-23T08:11:50.566Z,35.70
2019-05-23T08:16:53.110Z,34.97
2019-05-23T08:21:55.770Z,34.80
2019-05-23T08:26:58.906Z,34.67
2019-05-23T08:32:02.056Z,33.50
2019-05-23T08:37:07.355Z,34.39
2019-05-23T08:42:11.925Z,33.33
2019-05-23T08:47:14.877Z,34.70
2019-05-23T08:52:17.480Z,34.40
2019-05-23T08:57:21.597Z,33.61
2019-05-23T09:02:25.305Z,33.30
2019-05-23T09:07:27.802Z,34.22
2019-05-23T09:12:31.339Z,33.69
2019-05-23T09:17:51.364Z,32.10
2019-05-23T09:22:39.205Z,35.12
2019-05-23T09:27:42.060Z,32.14
2019-05-23T09:32:45.044Z,31.70
2019-05-23T09:37:47.539Z,32.75
2019-05-23T09:42:50.408Z,31.42
2019-05-23T09:47:54.784Z,29.62
2019-05-23T09:52:57.189Z,29.11
2019-05-23T09:57:59.621Z,28.77
2019-05-23T10:03:02.486Z,28.76
2019-05-23T10:08:05.097Z,29.43
2019-05-23T10:13:07.261Z,28.54
2019-05-23T10:18:15.511Z,26.38
2019-05-23T10:23:18.472Z,25.51
2019-05-23T10:28:21.728Z,24.96
2019-05-23T10:33:24.179Z,24.70
2019-05-23T10:38:29.448Z,25.04
2019-05-23T10:43:31.456Z,26.24
2019-05-23T10:48:35.935Z,27.40
2019-05-23T10:53:39.718Z,26.60
2019-05-23T10:58:42.374Z,25.77
2019-05-23T11:03:45.628Z,26.19
2019-05-23T11:08:48.427Z,26.50
2019-05-23T11:13:51.437Z,26.39
2019-05-23T11:18:54.993Z,25.71
2019-05-23T11:23:58.458Z,25.55
2019-05-23T11:29:01.338Z,25.90
2019-05-23T11:34:04.560Z,25.51
2019-05-23T11:39:08.335Z,25.85
2019-05-23T11:44:10.494Z,25.96
2019-05-23T11:49:14.081Z,25.89
2019-05-23T11:54:16.608Z,27.44
2019-05-23T11:59:19.382Z,28.19
2019-05-23T12:04:24.670Z,28.12
2019-05-23T12:09:28.720Z,28.15
2019-05-23T12:14:31.450Z,27.68
2019-05-23T12:19:34.701Z,28.65
2019-05-23T12:24:38.215Z,28.26
2019-05-23T12:29:41.243Z,27.87
2019-05-23T12:34:44.219Z,29.03
2019-05-23T12:39:46.882Z,29.02
2019-05-23T12:44:49.102Z,27.89
2019-05-23T12:49:58.070Z,27.61
2019-05-23T12:55:00.473Z,27.46
2019-05-23T13:00:06.212Z,27.24
2019-05-23T13:05:10.855Z,26.87
2019-05-23T13:10:14.252Z,26.33
2019-05-23T13:15:16.830Z,26.57
2019-05-23T13:20:19.992Z,26.41
2019-05-23T13:25:23.033Z,26.37
2019-05-23T13:30:26.434Z,26.19
2019-05-23T13:35:29.782Z,26.15
2019-05-23T13:40:32.882Z,26.54
2019-05-23T13:45:36.212Z,26.89
2019-05-23T13:50:39.395Z,27.48
2019-05-23T13:55:42.160Z,27.16
2019-05-23T14:00:45.967Z,27.59
2019-05-23T14:05:49.110Z,27.51
2019-05-23T14:10:51.890Z,27.54
2019-05-23T14:15:55.200Z,27.35
2019-05-23T14:20:57.942Z,28.20
2019-05-23T14:26:00.736Z,28.92
2019-05-23T14:31:07.652Z,28.44
2019-05-23T14:36:17.060Z,29.11
2019-05-23T14:41:20.590Z,28.17
2019-05-23T14:46:26.026Z,28.15
2019-05-23T14:51:39.305Z,27.67
2019-05-23T14:56:42.815Z,27.59
2019-05-23T15:01:46.077Z,27.00
2019-05-23T15:06:48.542Z,27.13
2019-05-23T15:11:51.148Z,27.16
2019-05-23T15:16:53.604Z,27.68
2019-05-23T15:21:56.068Z,28.05
2019-05-23T15:26:58.766Z,28.91
2019-05-23T15:32:03.092Z,28.54
2019-05-23T15:37:05.541Z,28.73
2019-05-23T15:42:08.315Z,29.16
2019-05-23T15:47:11.326Z,29.40
2019-05-23T15:52:46.625Z,29.07
2019-05-23T15:57:57.565Z,29.16
2019-05-23T16:03:07.814Z,29.88
2019-05-23T16:08:10.510Z,29.72
2019-05-23T16:13:13.243Z,30.53
2019-05-23T16:18:16.547Z,30.92
2019-05-23T16:23:31.858Z,30.86
2019-05-23T16:28:34.195Z,30.64
2019-05-23T16:33:36.858Z,30.59
2019-05-23T16:38:39.432Z,30.88
2019-05-23T16:43:42.359Z,31.76
2019-05-23T16:48:45.095Z,31.81
2019-05-23T16:53:48.729Z,31.73
2019-05-23T16:59:03.760Z,31.95
2019-05-23T17:04:22.144Z,32.04
2019-05-23T17:09:42.779Z,32.11
2019-05-23T17:14:52.007Z,32.08
2019-05-23T17:20:19.442Z,32.21
2019-05-23T17:25:25.127Z,32.73
2019-05-23T17:30:34.805Z,32.54
2019-05-23T17:35:37.415Z,32.83
2019-05-23T17:40:40.018Z,33.12
2019-05-23T17:45:43.189Z,33.39
2019-05-23T17:50:46.192Z,33.79
2019-05-23T17:55:50.596Z,34.17
2019-05-23T18:00:54.200Z,34.01
2019-05-23T18:05:56.806Z,34.23
2019-05-23T18:10:59.327Z,34.19
2019-05-23T18:16:02.383Z,34.63
2019-05-23T18:21:05.769Z,34.58
2019-05-23T18:26:09.430Z,34.62
2019-05-23T18:31:16.631Z,34.77
2019-05-23T18:36:19.964Z,34.85
2019-05-23T18:41:22.935Z,35.11
2019-05-23T18:46:30.927Z,35.25
2019-05-23T18:51:33.844Z,35.55
2019-05-23T18:56:36.822Z,36.36
2019-05-23T19:01:39.992Z,36.48
2019-05-23T19:06:43.721Z,37.44
2019-05-23T19:11:46.844Z,38.13
2019-05-23T19:16:50.523Z,38.62
2019-05-23T19:21:53.439Z,39.32
2019-05-23T19:26:55.856Z,39.66
2019-05-23T19:32:00.062Z,39.84
2019-05-23T19:37:03.834Z,40.33
2019-05-23T19:42:07.871Z,40.81
2019-05-23T19:47:10.414Z,41.38
2019-05-23T19:52:13.626Z,41.44
2019-05-23T19:57:17.065Z,41.85
2019-05-23T20:02:51.206Z,41.96
2019-05-23T20:07:54.431Z,42.36
2019-05-23T20:12:58.289Z,43.10
2019-05-23T20:18:00.679Z,43.53
2019-05-23T20:23:03.611Z,43.91
2019-05-23T20:28:06.804Z,44.20
2019-05-23T20:33:09.228Z,44.87
2019-05-23T20:38:11.708Z,45.37
2019-05-23T20:43:14.292Z,45.79
2019-05-23T20:48:17.181Z,46.37
2019-05-23T20:53:19.931Z,46.28
2019-05-23T20:58:22.467Z,46.52
2019-05-23T21:03:28.337Z,46.89
2019-05-23T21:08:31.511Z,47.39
2019-05-23T21:13:33.896Z,47.98
2019-05-23T21:18:37.442Z,48.06
2019-05-23T21:23:39.828Z,48.38
2019-05-23T21:28:42.659Z,49.19
2019-05-23T21:33:45.147Z,49.18
2019-05-23T21:38:47.686Z,49.35
2019-05-23T21:43:51.847Z,49.62
2019-05-23T21:48:54.261Z,49.85
2019-05-23T21:53:57.379Z,50.50
2019-05-23T21:58:59.795Z,51.08
2019-05-23T22:04:24.433Z,51.20
2019-05-23T22:09:27.425Z,51.60
2019-05-23T22:14:29.925Z,52.02
2019-05-23T22:19:34.973Z,52.31
2019-05-23T22:24:37.546Z,52.70
2019-05-23T22:29:40.573Z,52.94
2019-05-23T22:34:48.592Z,53.14
2019-05-23T22:39:50.833Z,53.47
2019-05-23T22:44:54.410Z,53.64
2019-05-23T22:49:56.676Z,54.14
2019-05-23T22:54:59.539Z,54.39
2019-05-23T23:00:02.489Z,54.93
2019-05-23T23:05:05.373Z,55.26
2019-05-23T23:10:09.232Z,55.56
2019-05-23T23:15:12.319Z,55.77
2019-05-23T23:20:14.993Z,55.99
2019-05-23T23:25:17.384Z,56.34
2019-05-23T23:30:23.739Z,56.68
2019-05-23T23:35:26.311Z,56.86
2019-05-23T23:40:29.051Z,56.92
2019-05-23T23:45:50.192Z,57.15
2019-05-23T23:51:10.940Z,57.35
2019-05-23T23:56:32.073Z,57.43
